sensor_id;sensor_type;location;lat;lon;timestamp;P1;durP1;ratioP1;P2;durP2;ratioP2
5606;SDS011;2825;53.116;9.392;2022-07-29T00:00:13;14.70;;;1.90;;
5606;SDS011;2825;53.116;9.392;2022-07-29T00:02:39;13.27;;;1.80;;
5606;SDS011;2825;53.116;9.392;2022-07-29T00:05:05;13.53;;;1.60;;
5606;SDS011;2825;53.116;9.392;2022-07-29T00:07:31;13.53;;;2.20;;
5606;SDS011;2825;53.116;9.392;2022-07-29T00:09:56;15.93;;;1.80;;
5606;SDS011;2825;53.116;9.392;2022-07-29T00:12:22;13.13;;;1.80;;
5606;SDS011;2825;53.116;9.392;2022-07-29T00:14:49;20.60;;;2.67;;
5606;SDS011;2825;53.116;9.392;2022-07-29T00:17:15;14.00;;;1.57;;
5606;SDS011;2825;53.116;9.392;2022-07-29T00:19:41;13.60;;;1.87;;
5606;SDS011;2825;53.116;9.392;2022-07-29T00:22:07;13.23;;;1.80;;
5606;SDS011;2825;53.116;9.392;2022-07-29T00:24:33;13.97;;;2.20;;
5606;SDS011;2825;53.116;9.392;2022-07-29T00:26:59;15.10;;;1.83;;
5606;SDS011;2825;53.116;9.392;2022-07-29T00:29:25;12.63;;;1.50;;
5606;SDS011;2825;53.116;9.392;2022-07-29T00:31:50;13.33;;;1.90;;
5606;SDS011;2825;53.116;9.392;2022-07-29T00:34:16;14.77;;;1.93;;
5606;SDS011;2825;53.116;9.392;2022-07-29T00:37:01;13.17;;;1.63;;
5606;SDS011;2825;53.116;9.392;2022-07-29T00:39:26;13.00;;;1.93;;
5606;SDS011;2825;53.116;9.392;2022-07-29T00:41:52;13.33;;;1.67;;
5606;SDS011;2825;53.116;9.392;2022-07-29T00:44:18;13.47;;;1.83;;
5606;SDS011;2825;53.116;9.392;2022-07-29T00:46:44;13.27;;;1.70;;
5606;SDS011;2825;53.116;9.392;2022-07-29T00:49:10;14.73;;;1.70;;
5606;SDS011;2825;53.116;9.392;2022-07-29T00:51:36;12.47;;;1.70;;
5606;SDS011;2825;53.116;9.392;2022-07-29T00:54:03;13.30;;;1.90;;
5606;SDS011;2825;53.116;9.392;2022-07-29T00:56:30;12.23;;;1.70;;
5606;SDS011;2825;53.116;9.392;2022-07-29T00:58:57;12.30;;;2.17;;
5606;SDS011;2825;53.116;9.392;2022-07-29T01:01:23;12.70;;;1.80;;
5606;SDS011;2825;53.116;9.392;2022-07-29T01:03:49;13.53;;;2.20;;
5606;SDS011;2825;53.116;9.392;2022-07-29T01:06:16;12.77;;;1.73;;
5606;SDS011;2825;53.116;9.392;2022-07-29T01:08:43;14.93;;;2.90;;
5606;SDS011;2825;53.116;9.392;2022-07-29T01:11:10;12.67;;;1.73;;
5606;SDS011;2825;53.116;9.392;2022-07-29T01:13:37;12.10;;;1.77;;
5606;SDS011;2825;53.116;9.392;2022-07-29T01:16:04;16.70;;;2.63;;
5606;SDS011;2825;53.116;9.392;2022-07-29T01:18:48;12.13;;;1.60;;
5606;SDS011;2825;53.116;9.392;2022-07-29T01:24:35;12.00;;;1.67;;
5606;SDS011;2825;53.116;9.392;2022-07-29T01:27:06;16.93;;;2.13;;
5606;SDS011;2825;53.116;9.392;2022-07-29T01:29:36;15.97;;;1.83;;
5606;SDS011;2825;53.116;9.392;2022-07-29T01:34:45;12.50;;;1.70;;
5606;SDS011;2825;53.116;9.392;2022-07-29T01:37:18;14.63;;;2.17;;
5606;SDS011;2825;53.116;9.392;2022-07-29T01:39:49;13.80;;;2.00;;
5606;SDS011;2825;53.116;9.392;2022-07-29T01:45:38;14.00;;;2.00;;
5606;SDS011;2825;53.116;9.392;2022-07-29T01:47:56;12.20;;;1.33;;
5606;SDS011;2825;53.116;9.392;2022-07-29T01:50:52;14.80;;;3.10;;
5606;SDS011;2825;53.116;9.392;2022-07-29T01:53:31;14.20;;;1.93;;
5606;SDS011;2825;53.116;9.392;2022-07-29T01:56:03;12.57;;;1.77;;
5606;SDS011;2825;53.116;9.392;2022-07-29T01:58:31;12.90;;;1.50;;
5606;SDS011;2825;53.116;9.392;2022-07-29T02:00:58;14.10;;;1.83;;
5606;SDS011;2825;53.116;9.392;2022-07-29T02:03:25;20.00;;;2.27;;
5606;SDS011;2825;53.116;9.392;2022-07-29T02:05:52;12.90;;;2.03;;
5606;SDS011;2825;53.116;9.392;2022-07-29T02:08:21;12.77;;;1.73;;
5606;SDS011;2825;53.116;9.392;2022-07-29T02:10:48;11.40;;;1.30;;
5606;SDS011;2825;53.116;9.392;2022-07-29T02:13:15;14.30;;;2.23;;
5606;SDS011;2825;53.116;9.392;2022-07-29T02:15:43;11.77;;;1.73;;
5606;SDS011;2825;53.116;9.392;2022-07-29T02:18:17;13.60;;;1.87;;
5606;SDS011;2825;53.116;9.392;2022-07-29T02:20:46;12.40;;;1.93;;
5606;SDS011;2825;53.116;9.392;2022-07-29T02:23:14;13.40;;;2.10;;
5606;SDS011;2825;53.116;9.392;2022-07-29T02:25:44;12.60;;;2.17;;
5606;SDS011;2825;53.116;9.392;2022-07-29T02:28:12;12.20;;;2.00;;
5606;SDS011;2825;53.116;9.392;2022-07-29T02:30:40;12.50;;;1.93;;
5606;SDS011;2825;53.116;9.392;2022-07-29T02:33:08;12.53;;;1.77;;
5606;SDS011;2825;53.116;9.392;2022-07-29T02:35:37;14.70;;;1.97;;
5606;SDS011;2825;53.116;9.392;2022-07-29T02:38:05;12.90;;;1.67;;
5606;SDS011;2825;53.116;9.392;2022-07-29T02:40:51;14.93;;;2.20;;
5606;SDS011;2825;53.116;9.392;2022-07-29T02:43:19;12.27;;;2.13;;
5606;SDS011;2825;53.116;9.392;2022-07-29T02:45:47;18.30;;;2.33;;
5606;SDS011;2825;53.116;9.392;2022-07-29T02:48:16;14.40;;;1.80;;
5606;SDS011;2825;53.116;9.392;2022-07-29T02:50:51;15.33;;;2.30;;
5606;SDS011;2825;53.116;9.392;2022-07-29T02:53:26;11.70;;;1.80;;
5606;SDS011;2825;53.116;9.392;2022-07-29T02:55:58;14.80;;;1.97;;
5606;SDS011;2825;53.116;9.392;2022-07-29T03:01:16;16.03;;;2.63;;
5606;SDS011;2825;53.116;9.392;2022-07-29T03:03:46;17.13;;;2.03;;
5606;SDS011;2825;53.116;9.392;2022-07-29T03:06:14;13.10;;;2.27;;
5606;SDS011;2825;53.116;9.392;2022-07-29T03:08:42;13.67;;;2.30;;
5606;SDS011;2825;53.116;9.392;2022-07-29T03:11:09;17.83;;;2.53;;
5606;SDS011;2825;53.116;9.392;2022-07-29T03:13:36;12.33;;;1.90;;
5606;SDS011;2825;53.116;9.392;2022-07-29T03:16:02;14.60;;;3.13;;
5606;SDS011;2825;53.116;9.392;2022-07-29T03:18:29;13.37;;;2.20;;
5606;SDS011;2825;53.116;9.392;2022-07-29T03:20:56;13.80;;;2.00;;
5606;SDS011;2825;53.116;9.392;2022-07-29T03:23:22;14.30;;;2.27;;
5606;SDS011;2825;53.116;9.392;2022-07-29T03:25:52;14.10;;;3.27;;
5606;SDS011;2825;53.116;9.392;2022-07-29T03:28:18;14.10;;;2.50;;
5606;SDS011;2825;53.116;9.392;2022-07-29T03:30:45;11.90;;;1.97;;
5606;SDS011;2825;53.116;9.392;2022-07-29T03:33:11;13.70;;;2.20;;
5606;SDS011;2825;53.116;9.392;2022-07-29T03:35:37;11.70;;;1.93;;
5606;SDS011;2825;53.116;9.392;2022-07-29T03:38:03;13.30;;;2.67;;
5606;SDS011;2825;53.116;9.392;2022-07-29T03:40:33;15.20;;;2.80;;
5606;SDS011;2825;53.116;9.392;2022-07-29T03:43:15;12.57;;;2.07;;
5606;SDS011;2825;53.116;9.392;2022-07-29T03:45:42;13.83;;;2.60;;
5606;SDS011;2825;53.116;9.392;2022-07-29T03:48:12;13.53;;;2.03;;
5606;SDS011;2825;53.116;9.392;2022-07-29T03:50:40;15.50;;;2.47;;
5606;SDS011;2825;53.116;9.392;2022-07-29T03:53:06;14.07;;;2.83;;
5606;SDS011;2825;53.116;9.392;2022-07-29T03:55:33;13.33;;;2.70;;
5606;SDS011;2825;53.116;9.392;2022-07-29T03:58:05;15.73;;;2.50;;
5606;SDS011;2825;53.116;9.392;2022-07-29T04:00:32;15.63;;;2.23;;
5606;SDS011;2825;53.116;9.392;2022-07-29T04:03:00;18.17;;;3.00;;
5606;SDS011;2825;53.116;9.392;2022-07-29T04:05:26;14.33;;;2.70;;
5606;SDS011;2825;53.116;9.392;2022-07-29T04:07:52;13.07;;;2.60;;
5606;SDS011;2825;53.116;9.392;2022-07-29T04:10:18;15.30;;;2.63;;
5606;SDS011;2825;53.116;9.392;2022-07-29T04:12:44;15.67;;;4.13;;
5606;SDS011;2825;53.116;9.392;2022-07-29T04:15:10;20.43;;;2.90;;
5606;SDS011;2825;53.116;9.392;2022-07-29T04:17:36;12.90;;;2.63;;
5606;SDS011;2825;53.116;9.392;2022-07-29T04:20:03;14.27;;;2.70;;
5606;SDS011;2825;53.116;9.392;2022-07-29T04:22:29;16.57;;;3.20;;
5606;SDS011;2825;53.116;9.392;2022-07-29T04:24:55;14.90;;;2.83;;
5606;SDS011;2825;53.116;9.392;2022-07-29T04:27:20;13.13;;;2.63;;
5606;SDS011;2825;53.116;9.392;2022-07-29T04:29:46;13.53;;;2.40;;
5606;SDS011;2825;53.116;9.392;2022-07-29T04:32:12;13.03;;;2.10;;
5606;SDS011;2825;53.116;9.392;2022-07-29T04:34:37;17.97;;;2.80;;
5606;SDS011;2825;53.116;9.392;2022-07-29T04:37:03;14.00;;;2.97;;
5606;SDS011;2825;53.116;9.392;2022-07-29T04:39:29;13.30;;;2.33;;
5606;SDS011;2825;53.116;9.392;2022-07-29T04:41:54;15.97;;;2.47;;
5606;SDS011;2825;53.116;9.392;2022-07-29T04:44:20;13.03;;;2.63;;
5606;SDS011;2825;53.116;9.392;2022-07-29T04:46:46;17.33;;;3.13;;
5606;SDS011;2825;53.116;9.392;2022-07-29T04:49:12;18.70;;;2.90;;
5606;SDS011;2825;53.116;9.392;2022-07-29T04:51:38;13.80;;;2.90;;
5606;SDS011;2825;53.116;9.392;2022-07-29T04:54:04;13.13;;;2.80;;
5606;SDS011;2825;53.116;9.392;2022-07-29T04:56:29;14.80;;;2.73;;
5606;SDS011;2825;53.116;9.392;2022-07-29T04:58:55;14.90;;;3.07;;
5606;SDS011;2825;53.116;9.392;2022-07-29T05:01:21;14.67;;;3.00;;
5606;SDS011;2825;53.116;9.392;2022-07-29T05:03:46;16.13;;;2.97;;
5606;SDS011;2825;53.116;9.392;2022-07-29T05:06:12;15.00;;;2.43;;
5606;SDS011;2825;53.116;9.392;2022-07-29T05:08:38;13.50;;;2.80;;
5606;SDS011;2825;53.116;9.392;2022-07-29T05:11:03;13.50;;;2.97;;
5606;SDS011;2825;53.116;9.392;2022-07-29T05:13:29;14.23;;;2.77;;
5606;SDS011;2825;53.116;9.392;2022-07-29T05:15:55;14.00;;;2.70;;
5606;SDS011;2825;53.116;9.392;2022-07-29T05:18:23;16.17;;;2.90;;
5606;SDS011;2825;53.116;9.392;2022-07-29T05:20:49;14.30;;;2.87;;
5606;SDS011;2825;53.116;9.392;2022-07-29T05:23:15;15.67;;;2.47;;
5606;SDS011;2825;53.116;9.392;2022-07-29T05:25:40;14.47;;;2.67;;
5606;SDS011;2825;53.116;9.392;2022-07-29T05:28:06;14.67;;;2.77;;
5606;SDS011;2825;53.116;9.392;2022-07-29T05:30:32;14.50;;;3.50;;
5606;SDS011;2825;53.116;9.392;2022-07-29T05:32:57;17.17;;;2.63;;
5606;SDS011;2825;53.116;9.392;2022-07-29T05:35:23;12.97;;;2.83;;
5606;SDS011;2825;53.116;9.392;2022-07-29T05:37:49;14.87;;;3.17;;
5606;SDS011;2825;53.116;9.392;2022-07-29T05:40:15;12.70;;;2.50;;
5606;SDS011;2825;53.116;9.392;2022-07-29T05:42:41;14.23;;;2.43;;
5606;SDS011;2825;53.116;9.392;2022-07-29T05:45:06;14.03;;;2.80;;
5606;SDS011;2825;53.116;9.392;2022-07-29T05:47:33;19.77;;;2.90;;
5606;SDS011;2825;53.116;9.392;2022-07-29T05:49:59;14.67;;;2.70;;
5606;SDS011;2825;53.116;9.392;2022-07-29T05:52:24;18.60;;;3.20;;
5606;SDS011;2825;53.116;9.392;2022-07-29T05:54:50;12.97;;;2.73;;
5606;SDS011;2825;53.116;9.392;2022-07-29T05:57:20;14.77;;;2.90;;
5606;SDS011;2825;53.116;9.392;2022-07-29T05:59:48;13.47;;;2.67;;
5606;SDS011;2825;53.116;9.392;2022-07-29T06:02:14;14.37;;;3.30;;
5606;SDS011;2825;53.116;9.392;2022-07-29T06:04:40;14.37;;;2.60;;
5606;SDS011;2825;53.116;9.392;2022-07-29T06:07:06;18.97;;;3.60;;
5606;SDS011;2825;53.116;9.392;2022-07-29T06:09:32;17.17;;;3.20;;
5606;SDS011;2825;53.116;9.392;2022-07-29T06:11:59;17.37;;;3.70;;
5606;SDS011;2825;53.116;9.392;2022-07-29T06:14:25;14.33;;;3.23;;
5606;SDS011;2825;53.116;9.392;2022-07-29T06:16:53;21.97;;;3.47;;
5606;SDS011;2825;53.116;9.392;2022-07-29T06:19:19;13.10;;;2.63;;
5606;SDS011;2825;53.116;9.392;2022-07-29T06:21:45;14.33;;;3.13;;
5606;SDS011;2825;53.116;9.392;2022-07-29T06:24:12;15.73;;;2.90;;
5606;SDS011;2825;53.116;9.392;2022-07-29T06:26:38;18.00;;;2.90;;
5606;SDS011;2825;53.116;9.392;2022-07-29T06:29:05;15.23;;;3.10;;
5606;SDS011;2825;53.116;9.392;2022-07-29T06:31:35;13.83;;;3.43;;
5606;SDS011;2825;53.116;9.392;2022-07-29T06:34:01;14.17;;;2.93;;
5606;SDS011;2825;53.116;9.392;2022-07-29T06:36:26;14.77;;;3.03;;
5606;SDS011;2825;53.116;9.392;2022-07-29T06:38:52;12.90;;;2.40;;
5606;SDS011;2825;53.116;9.392;2022-07-29T06:41:18;14.73;;;3.03;;
5606;SDS011;2825;53.116;9.392;2022-07-29T06:43:44;15.07;;;3.00;;
5606;SDS011;2825;53.116;9.392;2022-07-29T06:46:12;15.60;;;2.63;;
5606;SDS011;2825;53.116;9.392;2022-07-29T06:48:40;20.13;;;3.50;;
5606;SDS011;2825;53.116;9.392;2022-07-29T06:51:07;15.40;;;3.10;;
5606;SDS011;2825;53.116;9.392;2022-07-29T06:53:34;15.80;;;3.00;;
5606;SDS011;2825;53.116;9.392;2022-07-29T06:56:01;16.60;;;3.40;;
5606;SDS011;2825;53.116;9.392;2022-07-29T06:58:28;15.60;;;3.10;;
5606;SDS011;2825;53.116;9.392;2022-07-29T07:00:54;15.93;;;3.33;;
5606;SDS011;2825;53.116;9.392;2022-07-29T07:03:20;15.90;;;2.70;;
5606;SDS011;2825;53.116;9.392;2022-07-29T07:05:46;16.33;;;2.83;;
5606;SDS011;2825;53.116;9.392;2022-07-29T07:08:12;15.70;;;3.13;;
5606;SDS011;2825;53.116;9.392;2022-07-29T07:10:38;14.27;;;3.17;;
5606;SDS011;2825;53.116;9.392;2022-07-29T07:13:05;15.93;;;3.30;;
5606;SDS011;2825;53.116;9.392;2022-07-29T07:15:31;15.10;;;3.70;;
5606;SDS011;2825;53.116;9.392;2022-07-29T07:17:56;16.20;;;2.90;;
5606;SDS011;2825;53.116;9.392;2022-07-29T07:20:22;14.93;;;3.40;;
5606;SDS011;2825;53.116;9.392;2022-07-29T07:22:48;17.20;;;3.73;;
5606;SDS011;2825;53.116;9.392;2022-07-29T07:25:14;14.50;;;2.57;;
5606;SDS011;2825;53.116;9.392;2022-07-29T07:27:42;16.63;;;3.30;;
5606;SDS011;2825;53.116;9.392;2022-07-29T07:30:11;14.00;;;2.60;;
5606;SDS011;2825;53.116;9.392;2022-07-29T07:32:37;15.73;;;2.83;;
5606;SDS011;2825;53.116;9.392;2022-07-29T07:35:03;17.93;;;3.87;;
5606;SDS011;2825;53.116;9.392;2022-07-29T07:37:30;15.40;;;2.20;;
5606;SDS011;2825;53.116;9.392;2022-07-29T07:39:56;18.70;;;4.43;;
5606;SDS011;2825;53.116;9.392;2022-07-29T07:42:23;15.83;;;3.30;;
5606;SDS011;2825;53.116;9.392;2022-07-29T07:44:48;16.70;;;3.27;;
5606;SDS011;2825;53.116;9.392;2022-07-29T07:47:15;17.40;;;3.30;;
5606;SDS011;2825;53.116;9.392;2022-07-29T07:49:45;15.83;;;2.90;;
5606;SDS011;2825;53.116;9.392;2022-07-29T07:52:12;15.30;;;3.23;;
5606;SDS011;2825;53.116;9.392;2022-07-29T07:54:38;15.43;;;2.67;;
5606;SDS011;2825;53.116;9.392;2022-07-29T07:57:04;15.40;;;3.23;;
5606;SDS011;2825;53.116;9.392;2022-07-29T07:59:29;16.40;;;3.43;;
5606;SDS011;2825;53.116;9.392;2022-07-29T08:01:55;15.97;;;3.33;;
5606;SDS011;2825;53.116;9.392;2022-07-29T08:04:21;14.97;;;2.47;;
5606;SDS011;2825;53.116;9.392;2022-07-29T08:06:48;16.50;;;3.47;;
5606;SDS011;2825;53.116;9.392;2022-07-29T08:09:14;14.77;;;2.93;;
5606;SDS011;2825;53.116;9.392;2022-07-29T08:11:40;16.50;;;2.60;;
5606;SDS011;2825;53.116;9.392;2022-07-29T08:14:06;15.63;;;2.93;;
5606;SDS011;2825;53.116;9.392;2022-07-29T08:16:31;17.83;;;2.80;;
5606;SDS011;2825;53.116;9.392;2022-07-29T08:18:57;15.40;;;2.87;;
5606;SDS011;2825;53.116;9.392;2022-07-29T08:21:23;15.80;;;3.00;;
5606;SDS011;2825;53.116;9.392;2022-07-29T08:23:50;17.60;;;2.87;;
5606;SDS011;2825;53.116;9.392;2022-07-29T08:26:40;16.53;;;3.07;;
5606;SDS011;2825;53.116;9.392;2022-07-29T08:29:07;19.73;;;2.90;;
5606;SDS011;2825;53.116;9.392;2022-07-29T08:31:32;16.40;;;2.50;;
5606;SDS011;2825;53.116;9.392;2022-07-29T08:33:58;16.70;;;3.20;;
5606;SDS011;2825;53.116;9.392;2022-07-29T08:36:25;17.10;;;2.53;;
5606;SDS011;2825;53.116;9.392;2022-07-29T08:38:51;18.63;;;3.33;;
5606;SDS011;2825;53.116;9.392;2022-07-29T08:41:20;17.00;;;2.80;;
5606;SDS011;2825;53.116;9.392;2022-07-29T08:43:46;19.87;;;2.67;;
5606;SDS011;2825;53.116;9.392;2022-07-29T08:46:13;18.40;;;3.00;;
5606;SDS011;2825;53.116;9.392;2022-07-29T08:48:39;17.30;;;2.60;;
5606;SDS011;2825;53.116;9.392;2022-07-29T08:51:06;23.63;;;3.03;;
5606;SDS011;2825;53.116;9.392;2022-07-29T08:53:33;16.13;;;2.53;;
5606;SDS011;2825;53.116;9.392;2022-07-29T08:55:59;19.43;;;3.00;;
5606;SDS011;2825;53.116;9.392;2022-07-29T08:58:26;18.07;;;2.60;;
5606;SDS011;2825;53.116;9.392;2022-07-29T09:00:57;18.93;;;2.63;;
5606;SDS011;2825;53.116;9.392;2022-07-29T09:03:30;16.07;;;2.30;;
5606;SDS011;2825;53.116;9.392;2022-07-29T09:05:57;18.47;;;2.77;;
5606;SDS011;2825;53.116;9.392;2022-07-29T09:08:24;17.70;;;2.37;;
5606;SDS011;2825;53.116;9.392;2022-07-29T09:10:50;15.60;;;2.00;;
5606;SDS011;2825;53.116;9.392;2022-07-29T09:13:17;17.20;;;2.47;;
5606;SDS011;2825;53.116;9.392;2022-07-29T09:15:43;18.03;;;2.00;;
5606;SDS011;2825;53.116;9.392;2022-07-29T09:18:09;19.20;;;2.87;;
5606;SDS011;2825;53.116;9.392;2022-07-29T09:20:34;19.80;;;2.17;;
5606;SDS011;2825;53.116;9.392;2022-07-29T09:23:19;16.90;;;2.40;;
5606;SDS011;2825;53.116;9.392;2022-07-29T09:25:44;17.33;;;2.20;;
5606;SDS011;2825;53.116;9.392;2022-07-29T09:28:14;17.40;;;2.50;;
5606;SDS011;2825;53.116;9.392;2022-07-29T09:33:21;19.20;;;2.30;;
5606;SDS011;2825;53.116;9.392;2022-07-29T09:36:07;18.60;;;2.33;;
5606;SDS011;2825;53.116;9.392;2022-07-29T09:38:34;16.77;;;1.77;;
5606;SDS011;2825;53.116;9.392;2022-07-29T09:41:02;16.40;;;2.20;;
5606;SDS011;2825;53.116;9.392;2022-07-29T09:43:29;19.07;;;2.33;;
5606;SDS011;2825;53.116;9.392;2022-07-29T09:45:55;19.57;;;2.60;;
5606;SDS011;2825;53.116;9.392;2022-07-29T09:48:34;19.03;;;2.40;;
5606;SDS011;2825;53.116;9.392;2022-07-29T09:51:00;17.57;;;2.03;;
5606;SDS011;2825;53.116;9.392;2022-07-29T09:53:34;17.07;;;2.23;;
5606;SDS011;2825;53.116;9.392;2022-07-29T09:56:02;17.47;;;1.80;;
5606;SDS011;2825;53.116;9.392;2022-07-29T09:58:28;17.53;;;1.93;;
5606;SDS011;2825;53.116;9.392;2022-07-29T10:00:54;16.20;;;1.87;;
5606;SDS011;2825;53.116;9.392;2022-07-29T10:03:20;18.10;;;1.83;;
5606;SDS011;2825;53.116;9.392;2022-07-29T10:06:03;19.97;;;2.07;;
5606;SDS011;2825;53.116;9.392;2022-07-29T10:08:33;15.90;;;1.70;;
5606;SDS011;2825;53.116;9.392;2022-07-29T10:11:09;18.27;;;1.90;;
5606;SDS011;2825;53.116;9.392;2022-07-29T10:13:43;18.87;;;1.97;;
5606;SDS011;2825;53.116;9.392;2022-07-29T10:16:09;18.20;;;2.00;;
5606;SDS011;2825;53.116;9.392;2022-07-29T10:18:37;17.40;;;1.70;;
5606;SDS011;2825;53.116;9.392;2022-07-29T10:21:04;16.50;;;1.80;;
5606;SDS011;2825;53.116;9.392;2022-07-29T10:23:30;17.13;;;2.00;;
5606;SDS011;2825;53.116;9.392;2022-07-29T10:25:56;18.17;;;2.17;;
5606;SDS011;2825;53.116;9.392;2022-07-29T10:28:22;18.37;;;2.00;;
5606;SDS011;2825;53.116;9.392;2022-07-29T10:30:52;19.83;;;2.37;;
5606;SDS011;2825;53.116;9.392;2022-07-29T10:39:05;17.43;;;2.00;;
5606;SDS011;2825;53.116;9.392;2022-07-29T10:41:39;16.60;;;1.87;;
5606;SDS011;2825;53.116;9.392;2022-07-29T10:44:18;17.60;;;2.17;;
5606;SDS011;2825;53.116;9.392;2022-07-29T10:46:45;19.37;;;1.60;;
5606;SDS011;2825;53.116;9.392;2022-07-29T10:49:13;17.47;;;1.80;;
5606;SDS011;2825;53.116;9.392;2022-07-29T11:05:08;18.03;;;1.70;;
5606;SDS011;2825;53.116;9.392;2022-07-29T11:07:39;16.77;;;1.80;;
5606;SDS011;2825;53.116;9.392;2022-07-29T11:10:25;17.80;;;1.87;;
5606;SDS011;2825;53.116;9.392;2022-07-29T11:12:51;16.43;;;1.40;;
5606;SDS011;2825;53.116;9.392;2022-07-29T11:15:21;18.73;;;1.90;;
5606;SDS011;2825;53.116;9.392;2022-07-29T11:22:58;16.80;;;1.83;;
5606;SDS011;2825;53.116;9.392;2022-07-29T11:25:24;16.70;;;2.30;;
5606;SDS011;2825;53.116;9.392;2022-07-29T11:27:54;23.00;;;2.63;;
5606;SDS011;2825;53.116;9.392;2022-07-29T11:30:48;18.20;;;2.20;;
5606;SDS011;2825;53.116;9.392;2022-07-29T11:33:34;17.40;;;1.60;;
5606;SDS011;2825;53.116;9.392;2022-07-29T11:36:10;17.83;;;1.77;;
5606;SDS011;2825;53.116;9.392;2022-07-29T11:38:37;16.80;;;1.87;;
5606;SDS011;2825;53.116;9.392;2022-07-29T11:43:50;18.73;;;2.13;;
5606;SDS011;2825;53.116;9.392;2022-07-29T11:49:19;18.83;;;1.80;;
5606;SDS011;2825;53.116;9.392;2022-07-29T11:51:52;20.77;;;2.47;;
5606;SDS011;2825;53.116;9.392;2022-07-29T11:54:24;18.80;;;2.00;;
5606;SDS011;2825;53.116;9.392;2022-07-29T11:56:51;18.83;;;2.20;;
5606;SDS011;2825;53.116;9.392;2022-07-29T11:59:18;19.63;;;2.10;;
5606;SDS011;2825;53.116;9.392;2022-07-29T12:01:54;17.23;;;1.73;;
5606;SDS011;2825;53.116;9.392;2022-07-29T12:04:21;17.70;;;2.20;;
5606;SDS011;2825;53.116;9.392;2022-07-29T12:06:51;17.33;;;2.00;;
5606;SDS011;2825;53.116;9.392;2022-07-29T12:09:18;17.57;;;2.10;;
5606;SDS011;2825;53.116;9.392;2022-07-29T12:11:45;19.20;;;1.80;;
5606;SDS011;2825;53.116;9.392;2022-07-29T12:14:29;17.50;;;1.47;;
5606;SDS011;2825;53.116;9.392;2022-07-29T12:16:57;16.60;;;1.70;;
5606;SDS011;2825;53.116;9.392;2022-07-29T12:19:24;17.80;;;1.70;;
5606;SDS011;2825;53.116;9.392;2022-07-29T12:21:51;21.90;;;2.60;;
5606;SDS011;2825;53.116;9.392;2022-07-29T12:24:18;16.20;;;1.70;;
5606;SDS011;2825;53.116;9.392;2022-07-29T12:26:54;18.40;;;1.93;;
5606;SDS011;2825;53.116;9.392;2022-07-29T12:29:21;17.37;;;2.00;;
5606;SDS011;2825;53.116;9.392;2022-07-29T12:31:51;16.90;;;1.70;;
5606;SDS011;2825;53.116;9.392;2022-07-29T12:34:19;16.63;;;1.63;;
5606;SDS011;2825;53.116;9.392;2022-07-29T12:36:48;19.07;;;1.90;;
5606;SDS011;2825;53.116;9.392;2022-07-29T12:39:15;18.53;;;2.20;;
5606;SDS011;2825;53.116;9.392;2022-07-29T12:41:42;18.93;;;2.77;;
5606;SDS011;2825;53.116;9.392;2022-07-29T12:44:08;16.30;;;1.60;;
5606;SDS011;2825;53.116;9.392;2022-07-29T12:46:34;15.90;;;1.73;;
5606;SDS011;2825;53.116;9.392;2022-07-29T12:49:00;16.17;;;1.67;;
5606;SDS011;2825;53.116;9.392;2022-07-29T12:51:29;16.73;;;2.17;;
5606;SDS011;2825;53.116;9.392;2022-07-29T12:56:32;18.50;;;2.23;;
5606;SDS011;2825;53.116;9.392;2022-07-29T12:58:58;19.80;;;2.27;;
5606;SDS011;2825;53.116;9.392;2022-07-29T13:01:24;16.80;;;1.33;;
5606;SDS011;2825;53.116;9.392;2022-07-29T13:03:58;16.77;;;1.93;;
5606;SDS011;2825;53.116;9.392;2022-07-29T13:09:14;17.40;;;1.77;;
5606;SDS011;2825;53.116;9.392;2022-07-29T13:11:46;17.30;;;1.47;;
5606;SDS011;2825;53.116;9.392;2022-07-29T13:14:13;19.60;;;2.27;;
5606;SDS011;2825;53.116;9.392;2022-07-29T13:17:10;18.73;;;2.10;;
5606;SDS011;2825;53.116;9.392;2022-07-29T13:19:45;18.00;;;1.80;;
5606;SDS011;2825;53.116;9.392;2022-07-29T13:22:14;16.40;;;1.80;;
5606;SDS011;2825;53.116;9.392;2022-07-29T13:27:21;16.90;;;1.80;;
5606;SDS011;2825;53.116;9.392;2022-07-29T13:29:48;18.30;;;1.80;;
5606;SDS011;2825;53.116;9.392;2022-07-29T13:32:18;19.00;;;1.50;;
5606;SDS011;2825;53.116;9.392;2022-07-29T13:34:44;19.80;;;2.00;;
5606;SDS011;2825;53.116;9.392;2022-07-29T13:37:10;17.40;;;1.30;;
5606;SDS011;2825;53.116;9.392;2022-07-29T13:39:36;17.50;;;1.40;;
5606;SDS011;2825;53.116;9.392;2022-07-29T13:42:02;19.53;;;1.90;;
5606;SDS011;2825;53.116;9.392;2022-07-29T13:44:29;17.67;;;1.77;;
5606;SDS011;2825;53.116;9.392;2022-07-29T13:46:54;16.97;;;1.87;;
5606;SDS011;2825;53.116;9.392;2022-07-29T13:49:20;17.83;;;1.93;;
5606;SDS011;2825;53.116;9.392;2022-07-29T13:51:47;16.83;;;1.37;;
5606;SDS011;2825;53.116;9.392;2022-07-29T13:54:14;19.03;;;1.60;;
5606;SDS011;2825;53.116;9.392;2022-07-29T13:56:40;17.20;;;1.97;;
5606;SDS011;2825;53.116;9.392;2022-07-29T13:59:06;17.50;;;1.50;;
5606;SDS011;2825;53.116;9.392;2022-07-29T14:01:32;19.33;;;1.97;;
5606;SDS011;2825;53.116;9.392;2022-07-29T14:03:59;18.10;;;1.40;;
5606;SDS011;2825;53.116;9.392;2022-07-29T14:06:25;19.20;;;1.90;;
5606;SDS011;2825;53.116;9.392;2022-07-29T14:08:50;18.73;;;2.57;;
5606;SDS011;2825;53.116;9.392;2022-07-29T14:11:16;18.50;;;1.80;;
5606;SDS011;2825;53.116;9.392;2022-07-29T14:13:42;17.47;;;1.50;;
5606;SDS011;2825;53.116;9.392;2022-07-29T14:16:08;20.53;;;2.00;;
5606;SDS011;2825;53.116;9.392;2022-07-29T14:18:33;21.63;;;1.57;;
5606;SDS011;2825;53.116;9.392;2022-07-29T14:20:59;19.50;;;2.10;;
5606;SDS011;2825;53.116;9.392;2022-07-29T14:23:25;18.70;;;1.70;;
5606;SDS011;2825;53.116;9.392;2022-07-29T14:25:51;19.20;;;1.70;;
5606;SDS011;2825;53.116;9.392;2022-07-29T14:28:16;19.43;;;1.43;;
5606;SDS011;2825;53.116;9.392;2022-07-29T14:30:42;19.50;;;1.80;;
5606;SDS011;2825;53.116;9.392;2022-07-29T14:33:08;18.50;;;1.53;;
5606;SDS011;2825;53.116;9.392;2022-07-29T14:35:33;19.77;;;1.60;;
5606;SDS011;2825;53.116;9.392;2022-07-29T14:37:59;18.10;;;1.77;;
5606;SDS011;2825;53.116;9.392;2022-07-29T14:40:25;23.73;;;2.20;;
5606;SDS011;2825;53.116;9.392;2022-07-29T14:42:51;18.40;;;1.90;;
5606;SDS011;2825;53.116;9.392;2022-07-29T14:45:16;17.60;;;1.63;;
5606;SDS011;2825;53.116;9.392;2022-07-29T14:47:42;17.10;;;1.23;;
5606;SDS011;2825;53.116;9.392;2022-07-29T14:50:08;23.00;;;2.40;;
5606;SDS011;2825;53.116;9.392;2022-07-29T14:52:34;18.67;;;0.97;;
5606;SDS011;2825;53.116;9.392;2022-07-29T14:55:00;22.13;;;1.93;;
5606;SDS011;2825;53.116;9.392;2022-07-29T14:57:26;17.93;;;1.90;;
5606;SDS011;2825;53.116;9.392;2022-07-29T14:59:52;18.30;;;1.60;;
5606;SDS011;2825;53.116;9.392;2022-07-29T15:02:17;20.10;;;2.00;;
5606;SDS011;2825;53.116;9.392;2022-07-29T15:04:43;19.80;;;1.40;;
5606;SDS011;2825;53.116;9.392;2022-07-29T15:07:10;18.77;;;1.47;;
5606;SDS011;2825;53.116;9.392;2022-07-29T15:09:36;21.80;;;2.00;;
5606;SDS011;2825;53.116;9.392;2022-07-29T15:12:02;19.33;;;1.90;;
5606;SDS011;2825;53.116;9.392;2022-07-29T15:14:29;18.70;;;1.43;;
5606;SDS011;2825;53.116;9.392;2022-07-29T15:16:55;19.13;;;1.80;;
5606;SDS011;2825;53.116;9.392;2022-07-29T15:19:20;17.93;;;1.60;;
5606;SDS011;2825;53.116;9.392;2022-07-29T15:21:46;19.13;;;1.93;;
5606;SDS011;2825;53.116;9.392;2022-07-29T15:24:12;17.30;;;1.70;;
5606;SDS011;2825;53.116;9.392;2022-07-29T15:26:37;19.10;;;1.87;;
5606;SDS011;2825;53.116;9.392;2022-07-29T15:29:03;19.03;;;1.97;;
5606;SDS011;2825;53.116;9.392;2022-07-29T15:31:29;19.57;;;1.27;;
5606;SDS011;2825;53.116;9.392;2022-07-29T15:33:54;18.57;;;1.77;;
5606;SDS011;2825;53.116;9.392;2022-07-29T15:36:20;19.90;;;2.10;;
5606;SDS011;2825;53.116;9.392;2022-07-29T15:38:45;19.00;;;2.07;;
5606;SDS011;2825;53.116;9.392;2022-07-29T15:41:14;18.20;;;1.90;;
5606;SDS011;2825;53.116;9.392;2022-07-29T15:43:43;17.50;;;1.67;;
5606;SDS011;2825;53.116;9.392;2022-07-29T15:46:15;17.30;;;1.73;;
5606;SDS011;2825;53.116;9.392;2022-07-29T15:49:00;18.80;;;1.37;;
5606;SDS011;2825;53.116;9.392;2022-07-29T15:51:27;17.87;;;1.90;;
5606;SDS011;2825;53.116;9.392;2022-07-29T15:53:53;21.47;;;2.23;;
5606;SDS011;2825;53.116;9.392;2022-07-29T15:56:18;20.73;;;2.53;;